createdAt,value
2022-09-15T00:01:11.023Z,100284.09
2022-09-15T00:03:39.063Z,100270.75
2022-09-15T00:06:06.867Z,100278.69
2022-09-15T00:08:34.598Z,100277.84
2022-09-15T00:11:22.350Z,100267.00
2022-09-15T00:13:50.898Z,100273.25
2022-09-15T00:16:20.345Z,100271.56
2022-09-15T00:18:50.873Z,100258.00
2022-09-15T00:21:22.802Z,100256.13
2022-09-15T00:23:50.935Z,100249.88
2022-09-15T00:26:20.823Z,100247.16
2022-09-15T00:28:48.598Z,100251.75
2022-09-15T00:31:19.594Z,100260.72
2022-09-15T00:33:48.774Z,100263.44
2022-09-15T00:36:17.216Z,100280.56
2022-09-15T00:38:45.048Z,100266.16
2022-09-15T00:41:15.175Z,100267.00
2022-09-15T00:44:02.407Z,100261.56
2022-09-15T00:47:09.301Z,100250.72
2022-09-15T00:49:40.494Z,100249.88
2022-09-15T00:52:12.321Z,100262.59
2022-09-15T00:54:55.126Z,100242.56
2022-09-15T00:57:45.324Z,100238.19
2022-09-15T01:00:16.550Z,100241.72
2022-09-15T01:02:45.987Z,100237.34
2022-09-15T01:05:17.636Z,100263.44
2022-09-15T01:07:59.505Z,100264.47
2022-09-15T01:10:30.308Z,100279.72
2022-09-15T01:13:07.158Z,100270.75
2022-09-15T01:15:43.763Z,100306.00
2022-09-15T01:18:40.209Z,100320.41
2022-09-15T01:21:34.557Z,100323.13
2022-09-15T01:24:27.199Z,100349.41
2022-09-15T01:27:13.880Z,100337.53
2022-09-15T01:30:11.754Z,100326.88
2022-09-15T01:33:11.670Z,100344.00
2022-09-15T01:35:57.141Z,100302.47
2022-09-15T01:38:42.121Z,100287.84
2022-09-15T01:41:44.312Z,100302.25
2022-09-15T01:44:40.813Z,100259.88
2022-09-15T01:47:11.705Z,100270.75
2022-09-15T01:49:55.665Z,100295.16
2022-09-15T01:52:24.865Z,100287.00
2022-09-15T01:54:57.359Z,100254.47
2022-09-15T01:57:25.140Z,100244.44
2022-09-15T01:59:54.708Z,100254.47
2022-09-15T02:02:35.830Z,100221.91
2022-09-15T02:05:16.577Z,100222.75
2022-09-15T02:08:05.132Z,100248.19
2022-09-15T02:10:44.001Z,100244.44
2022-09-15T02:13:16.984Z,100215.66
2022-09-15T02:15:57.979Z,100210.22
2022-09-15T02:19:02.137Z,100233.59
2022-09-15T02:21:55.777Z,100221.91
2022-09-15T02:24:29.134Z,100219.19
2022-09-15T02:26:57.652Z,100228.16
2022-09-15T02:29:28.288Z,100223.56
2022-09-15T02:32:03.788Z,100208.34
2022-09-15T02:34:38.619Z,100204.59
2022-09-15T02:37:06.771Z,100200.19
2022-09-15T02:39:39.903Z,100197.66
2022-09-15T02:42:07.551Z,100197.66
2022-09-15T02:44:35.325Z,100184.09
2022-09-15T02:47:03.984Z,100176.78
2022-09-15T02:49:31.234Z,100178.66
2022-09-15T02:51:58.549Z,100160.50
2022-09-15T02:54:25.750Z,100148.81
2022-09-15T02:56:53.005Z,100139.84
2022-09-15T02:59:20.267Z,100121.69
2022-09-15T03:01:47.641Z,100118.16
2022-09-15T03:04:14.959Z,100122.72
2022-09-15T03:06:42.824Z,100105.63
2022-09-15T03:09:10.152Z,100106.66
2022-09-15T03:11:37.385Z,100104.78
2022-09-15T03:14:06.583Z,100092.44
2022-09-15T03:16:35.265Z,100095.16
2022-09-15T03:19:03.695Z,100087.84
2022-09-15T03:21:31.389Z,100092.44
2022-09-15T03:23:59.059Z,100105.84
2022-09-15T03:26:26.748Z,100110.38
2022-09-15T03:28:54.040Z,100108.72
2022-09-15T03:31:21.594Z,100112.25
2022-09-15T03:33:49.343Z,100106.00
2022-09-15T03:36:16.539Z,100100.56
2022-09-15T03:38:43.790Z,100087.22
2022-09-15T03:41:12.252Z,100096.19
2022-09-15T03:43:39.818Z,100093.66
2022-09-15T03:46:08.726Z,100080.09
2022-09-15T03:48:36.641Z,100067.41
2022-09-15T03:51:05.741Z,100078.25
2022-09-15T03:53:34.609Z,100081.97
2022-09-15T03:56:17.937Z,100076.53
2022-09-15T03:58:45.250Z,100081.97
2022-09-15T04:01:12.648Z,100071.13
2022-09-15T04:03:45.207Z,100062.97
2022-09-15T04:06:15.129Z,100069.25
2022-09-15T04:08:42.477Z,100073.84
2022-09-15T04:11:11.846Z,100065.69
2022-09-15T04:13:40.351Z,100078.41
2022-09-15T04:16:10.395Z,100081.13
2022-09-15T04:18:37.700Z,100090.31
2022-09-15T04:21:13.294Z,100098.66
2022-09-15T04:23:41.390Z,100097.78
2022-09-15T04:26:14.083Z,100103.41
2022-09-15T04:28:41.333Z,100117.81
2022-09-15T04:31:12.222Z,100122.41
2022-09-15T04:33:41.955Z,100128.66
2022-09-15T04:36:12.684Z,100143.06
2022-09-15T04:38:40.272Z,100137.63
2022-09-15T04:41:08.066Z,100141.19
2022-09-15T04:43:35.693Z,100152.91
2022-09-15T04:46:03.425Z,100142.06
2022-09-15T04:48:31.782Z,100138.47
2022-09-15T04:51:03.930Z,100137.63
2022-09-15T04:53:31.287Z,100139.34
2022-09-15T04:56:12.650Z,100142.06
2022-09-15T04:58:45.954Z,100147.47
2022-09-15T05:01:15.733Z,100157.47
2022-09-15T05:03:44.223Z,100162.25
2022-09-15T05:06:14.869Z,100160.19
2022-09-15T05:08:42.238Z,100169.19
2022-09-15T05:11:12.428Z,100169.19
2022-09-15T05:13:40.957Z,100171.03
2022-09-15T05:16:13.748Z,100175.63
2022-09-15T05:18:41.967Z,100177.50
2022-09-15T05:21:11.588Z,100176.44
2022-09-15T05:23:39.908Z,100177.31
2022-09-15T05:26:11.574Z,100177.31
2022-09-15T05:28:39.807Z,100175.44
2022-09-15T05:31:12.536Z,100168.31
2022-09-15T05:33:39.767Z,100158.34
2022-09-15T05:36:10.214Z,100162.88
2022-09-15T05:38:37.568Z,100167.47
2022-09-15T05:41:17.670Z,100175.44
2022-09-15T05:43:46.715Z,100177.31
2022-09-15T05:46:14.974Z,100187.31
2022-09-15T05:48:42.974Z,100203.56
2022-09-15T05:51:10.225Z,100200.88
2022-09-15T05:53:38.183Z,100197.31
2022-09-15T05:56:09.941Z,100192.72
2022-09-15T05:58:42.227Z,100183.75
2022-09-15T06:01:29.925Z,100197.31
2022-09-15T06:03:58.641Z,100199.19
2022-09-15T06:06:26.182Z,100193.78
2022-09-15T06:08:58.517Z,100193.78
2022-09-15T06:11:31.183Z,100212.75
2022-09-15T06:14:03.319Z,100213.59
2022-09-15T06:16:33.110Z,100218.84
2022-09-15T06:19:03.491Z,100218.00
2022-09-15T06:21:32.495Z,100235.13
2022-09-15T06:24:03.399Z,100245.13
2022-09-15T06:26:30.725Z,100247.84
2022-09-15T06:29:02.868Z,100230.69
2022-09-15T06:31:32.432Z,100235.97
2022-09-15T06:34:00.536Z,100241.38
2022-09-15T06:36:29.580Z,100230.53
2022-09-15T06:38:57.068Z,100231.75
2022-09-15T06:41:24.710Z,100239.03
2022-09-15T06:43:53.141Z,100233.63
2022-09-15T06:46:23.408Z,100238.44
2022-09-15T06:48:52.072Z,100232.63
2022-09-15T06:51:22.347Z,100235.97
2022-09-15T06:53:50.033Z,100231.38
2022-09-15T06:56:20.038Z,100233.25
2022-09-15T06:58:50.357Z,100237.47
2022-09-15T07:01:23.983Z,100244.56
2022-09-15T07:03:51.970Z,100233.72
2022-09-15T07:06:19.501Z,100232.91
2022-09-15T07:08:47.386Z,100227.00
2022-09-15T07:11:14.891Z,100225.34
2022-09-15T07:13:42.645Z,100223.66
2022-09-15T07:16:12.447Z,100235.34
2022-09-15T07:18:43.297Z,100231.59
2022-09-15T07:21:14.034Z,100227.66
2022-09-15T07:23:42.002Z,100228.22
2022-09-15T07:26:09.343Z,100228.63
2022-09-15T07:28:37.350Z,100220.06
2022-09-15T07:31:06.744Z,100218.22
2022-09-15T07:33:34.407Z,100216.16
2022-09-15T07:36:06.776Z,100213.66
2022-09-15T07:38:35.302Z,100201.09
2022-09-15T07:41:08.131Z,100203.63
2022-09-15T07:43:36.080Z,100195.50
2022-09-15T07:46:04.107Z,100201.97
2022-09-15T07:48:32.024Z,100194.84
2022-09-15T07:51:00.033Z,100193.16
2022-09-15T07:53:30.787Z,100187.94
2022-09-15T07:55:58.136Z,100182.69
2022-09-15T07:58:25.536Z,100188.09
2022-09-15T08:00:52.994Z,100191.03
2022-09-15T08:03:20.299Z,100199.16
2022-09-15T08:05:47.504Z,100193.53
2022-09-15T08:08:14.775Z,100202.50
2022-09-15T08:10:42.024Z,100200.47
2022-09-15T08:13:09.247Z,100200.25
2022-09-15T08:15:37.743Z,100203.63
2022-09-15T08:18:06.174Z,100222.25
2022-09-15T08:20:33.731Z,100212.03
2022-09-15T08:23:01.995Z,100228.31
2022-09-15T08:25:30.426Z,100218.28
2022-09-15T08:27:59.597Z,100219.13
2022-09-15T08:30:30.297Z,100224.19
2022-09-15T08:32:57.635Z,100214.84
2022-09-15T08:35:24.980Z,100215.47
2022-09-15T08:37:54.970Z,100213.41
2022-09-15T08:40:30.918Z,100207.16
2022-09-15T08:43:03.709Z,100213.22
2022-09-15T08:45:34.963Z,100203.41
2022-09-15T08:48:04.895Z,100206.97
2022-09-15T08:50:43.479Z,100206.75
2022-09-15T08:53:23.841Z,100201.53
2022-09-15T08:55:54.591Z,100205.28
2022-09-15T08:58:24.799Z,100195.28
2022-09-15T09:01:02.831Z,100190.88
2022-09-15T09:03:58.635Z,100184.78
2022-09-15T09:06:38.058Z,100181.25
2022-09-15T09:09:24.424Z,100166.84
2022-09-15T09:12:28.079Z,100174.31
2022-09-15T09:15:01.167Z,100174.31
2022-09-15T09:17:39.487Z,100159.09
2022-09-15T09:20:32.122Z,100172.66
2022-09-15T09:23:01.822Z,100165.34
2022-09-15T09:25:29.555Z,100165.34
2022-09-15T09:27:58.516Z,100167.03
2022-09-15T09:30:29.716Z,100162.47
2022-09-15T09:33:25.587Z,100150.56
2022-09-15T09:35:53.332Z,100146.19
2022-09-15T09:38:33.397Z,100140.56
2022-09-15T09:41:02.699Z,100152.25
2022-09-15T09:43:31.529Z,100149.53
2022-09-15T09:45:59.382Z,100159.34
2022-09-15T09:48:28.732Z,100162.06
2022-09-15T09:50:56.483Z,100155.78
2022-09-15T09:53:26.722Z,100161.88
2022-09-15T09:55:55.819Z,100164.59
2022-09-15T09:58:25.807Z,100163.56
2022-09-15T10:00:53.443Z,100164.59
2022-09-15T10:03:29.422Z,100154.59
2022-09-15T10:06:02.066Z,100143.72
2022-09-15T10:08:29.634Z,100143.91
2022-09-15T10:11:03.851Z,100151.88
2022-09-15T10:13:31.215Z,100136.44
2022-09-15T10:16:01.329Z,100129.34
2022-09-15T10:18:31.784Z,100126.41
2022-09-15T10:21:00.775Z,100110.13
2022-09-15T10:23:31.003Z,100104.72
2022-09-15T10:26:19.479Z,100108.09
2022-09-15T10:29:09.265Z,100113.31
2022-09-15T10:31:36.817Z,100104.97
2022-09-15T10:34:30.705Z,100119.19
2022-09-15T10:37:16.671Z,100118.97
2022-09-15T10:39:56.688Z,100110.66
2022-09-15T10:42:42.037Z,100113.19
2022-09-15T10:45:26.338Z,100105.88
2022-09-15T10:48:20.644Z,100094.84
2022-09-15T10:51:16.078Z,100109.25
2022-09-15T10:53:46.296Z,100121.78
2022-09-15T10:56:21.111Z,100115.31
2022-09-15T10:59:15.960Z,100122.41
2022-09-15T11:01:54.152Z,100120.56
2022-09-15T11:04:44.620Z,100121.56
2022-09-15T11:07:45.067Z,100108.00
2022-09-15T11:10:20.639Z,100108.66
2022-09-15T11:13:18.609Z,100118.47
2022-09-15T11:16:09.167Z,100114.91
2022-09-15T11:19:10.432Z,100118.47
2022-09-15T11:21:53.325Z,100135.59
2022-09-15T11:24:28.400Z,100131.81
2022-09-15T11:27:22.263Z,100141.00
2022-09-15T11:30:13.636Z,100128.47
2022-09-15T11:33:02.829Z,100111.16
2022-09-15T11:35:45.136Z,100104.91
2022-09-15T11:38:31.034Z,100117.63
2022-09-15T11:41:16.393Z,100113.88
2022-09-15T11:43:54.115Z,100111.00
2022-09-15T11:46:31.285Z,100129.78
2022-09-15T11:49:16.973Z,100162.53
2022-09-15T11:51:52.965Z,100148.97
2022-09-15T11:54:34.749Z,100136.63
2022-09-15T11:57:02.089Z,100154.25
2022-09-15T12:00:00.741Z,100200.94
2022-09-15T12:02:43.188Z,100233.88
2022-09-15T12:05:28.701Z,100202.84
2022-09-15T12:08:17.677Z,100192.72
2022-09-15T12:10:55.055Z,100222.72
2022-09-15T12:13:25.240Z,100221.66
2022-09-15T12:15:53.514Z,100231.94
2022-09-15T12:18:38.134Z,100236.84
2022-09-15T12:21:29.990Z,100212.00
2022-09-15T12:24:02.855Z,100205.50
2022-09-15T12:26:33.046Z,100210.16
2022-09-15T12:29:19.568Z,100198.19
2022-09-15T12:31:47.356Z,100164.53
2022-09-15T12:34:35.506Z,100176.88
2022-09-15T12:37:14.671Z,100167.13
2022-09-15T12:39:44.562Z,100181.22
2022-09-15T12:42:18.632Z,100180.94
2022-09-15T12:45:18.113Z,100173.56
2022-09-15T12:48:05.032Z,100184.25
2022-09-15T12:50:37.740Z,100172.34
2022-09-15T12:53:22.005Z,100165.53
2022-09-15T12:55:51.720Z,100153.50
2022-09-15T12:58:45.782Z,100163.78
2022-09-15T13:01:19.509Z,100150.69
2022-09-15T13:03:48.843Z,100149.28
2022-09-15T13:06:34.689Z,100152.34
2022-09-15T13:09:01.995Z,100135.81
2022-09-15T13:11:37.469Z,100137.31
2022-09-15T13:14:07.895Z,100106.19
2022-09-15T13:16:41.227Z,100080.19
2022-09-15T13:19:50.449Z,100082.13
2022-09-15T13:22:27.470Z,100088.84
2022-09-15T13:25:01.570Z,100074.66
2022-09-15T13:27:57.873Z,100080.19
2022-09-15T13:30:52.957Z,100056.28
2022-09-15T13:39:59.631Z,100072.66
2022-09-15T13:42:47.224Z,100073.19
2022-09-15T13:45:43.666Z,100080.47
2022-09-15T13:48:39.793Z,100083.66
2022-09-15T13:51:25.486Z,100087.72
2022-09-15T13:53:56.831Z,100072.94
2022-09-15T13:56:31.275Z,100079.66
2022-09-15T13:59:10.402Z,100098.38
2022-09-15T14:01:44.991Z,100102.75
2022-09-15T14:04:19.317Z,100108.41
2022-09-15T14:06:50.134Z,100098.38
2022-09-15T14:09:24.941Z,100093.88
2022-09-15T14:11:55.804Z,100096.66
2022-09-15T14:14:44.503Z,100094.00
2022-09-15T14:17:20.950Z,100075.47
2022-09-15T14:19:50.448Z,100048.19
2022-09-15T14:22:17.823Z,100026.63
2022-09-15T14:24:45.538Z,100028.41
2022-09-15T14:27:19.460Z,100037.66
2022-09-15T14:29:50.264Z,100026.09
2022-09-15T14:32:18.284Z,100029.28
2022-09-15T14:34:49.124Z,100010.59
2022-09-15T14:37:28.488Z,100000.44
2022-09-15T14:39:58.192Z,100010.84
2022-09-15T14:42:33.763Z,99979.41
2022-09-15T14:48:16.135Z,99964.94
2022-09-15T14:50:45.200Z,99974.34
2022-09-15T14:53:20.082Z,99945.88
2022-09-15T14:55:56.930Z,99960.91
2022-09-15T14:58:41.866Z,99974.03
2022-09-15T15:01:17.607Z,99968.09
2022-09-15T15:03:53.294Z,99969.59
2022-09-15T15:06:35.821Z,99978.63
2022-09-15T15:09:07.008Z,99976.03
2022-09-15T15:11:36.882Z,99966.69
2022-09-15T15:14:08.084Z,99953.16
2022-09-15T15:16:36.006Z,99953.66
2022-09-15T15:19:03.421Z,99944.22
2022-09-15T15:21:45.148Z,99961.75
2022-09-15T15:24:15.184Z,99951.69
2022-09-15T15:26:44.931Z,99937.59
2022-09-15T15:29:37.063Z,99926.44
2022-09-15T15:32:06.616Z,99930.22
2022-09-15T15:34:34.530Z,99946.38
2022-09-15T15:37:10.373Z,99940.13
2022-09-15T15:39:37.692Z,99928.00
2022-09-15T15:42:06.013Z,99927.09
2022-09-15T15:44:33.496Z,99919.44
2022-09-15T15:47:20.665Z,99921.78
2022-09-15T15:50:11.777Z,99941.19
2022-09-15T15:52:35.496Z,99939.78
2022-09-15T15:55:02.855Z,99930.06
2022-09-15T15:57:36.902Z,99916.63
2022-09-15T16:00:20.898Z,99905.84
2022-09-15T16:02:50.446Z,99896.31
2022-09-15T16:05:19.726Z,99893.91
2022-09-15T16:07:50.107Z,99896.88
2022-09-15T16:10:21.043Z,99890.88
2022-09-15T16:12:48.452Z,99878.63
2022-09-15T16:15:18.876Z,99884.50
2022-09-15T16:17:47.266Z,99878.88
2022-09-15T16:20:25.159Z,99884.59
2022-09-15T16:22:52.476Z,99877.75
2022-09-15T16:25:35.408Z,99867.56
2022-09-15T16:28:03.635Z,99864.50
2022-09-15T16:30:31.946Z,99870.75
2022-09-15T16:33:00.030Z,99869.50
2022-09-15T16:35:36.265Z,99870.16
2022-09-15T16:38:03.658Z,99857.44
2022-09-15T16:40:30.996Z,99858.28
2022-09-15T16:42:58.376Z,99857.06
2022-09-15T16:45:39.782Z,99854.16
2022-09-15T16:48:09.702Z,99853.09
2022-09-15T16:50:39.793Z,99854.81
2022-09-15T16:53:15.331Z,99856.47
2022-09-15T16:55:47.713Z,99857.31
2022-09-15T16:58:16.523Z,99854.41
2022-09-15T17:00:45.507Z,99859.81
2022-09-15T17:03:24.132Z,99853.38
2022-09-15T17:05:57.504Z,99852.34
2022-09-15T17:08:30.544Z,99846.94
2022-09-15T17:11:00.490Z,99848.59
2022-09-15T17:13:32.545Z,99847.56
2022-09-15T17:16:01.174Z,99848.41
2022-09-15T17:18:29.775Z,99847.38
2022-09-15T17:20:57.000Z,99850.91
2022-09-15T17:23:27.676Z,99856.34
2022-09-15T17:25:58.481Z,99849.88
2022-09-15T17:28:31.246Z,99852.41
2022-09-15T17:31:18.676Z,99847.81
2022-09-15T17:33:46.825Z,99847.81
2022-09-15T17:36:14.994Z,99858.47
2022-09-15T17:38:42.371Z,99862.22
2022-09-15T17:41:20.694Z,99867.41
2022-09-15T17:43:48.358Z,99872.84
2022-09-15T17:46:15.926Z,99875.31
2022-09-15T17:48:43.327Z,99882.97
2022-09-15T17:51:17.084Z,99877.94
2022-09-15T17:53:46.810Z,99884.41
2022-09-15T17:56:14.268Z,99886.28
2022-09-15T17:58:42.644Z,99891.03
2022-09-15T18:01:13.381Z,99880.84
2022-09-15T18:03:43.102Z,99886.28
2022-09-15T18:06:10.901Z,99886.06
2022-09-15T18:08:38.180Z,99887.94
2022-09-15T18:11:06.293Z,99892.31
2022-09-15T18:13:34.140Z,99892.16
2022-09-15T18:16:12.858Z,99901.13
2022-09-15T18:18:41.045Z,99895.69
2022-09-15T18:21:15.631Z,99907.38
2022-09-15T18:23:45.120Z,99908.19
2022-09-15T18:26:12.393Z,99917.16
2022-09-15T18:28:39.585Z,99916.31
2022-09-15T18:31:07.429Z,99916.31
2022-09-15T18:33:34.725Z,99924.66
2022-09-15T18:36:02.201Z,99918.41
2022-09-15T18:38:29.442Z,99924.66
2022-09-15T18:40:57.892Z,99930.25
2022-09-15T18:43:27.341Z,99934.00
2022-09-15T18:45:59.822Z,99932.13
2022-09-15T18:48:27.965Z,99951.09
2022-09-15T18:50:55.367Z,99953.81
2022-09-15T18:53:22.860Z,99952.97
2022-09-15T18:55:50.263Z,99949.22
2022-09-15T18:58:19.207Z,99952.97
2022-09-15T19:00:46.776Z,99955.69
2022-09-15T19:03:14.324Z,99953.19
2022-09-15T19:05:41.840Z,99948.59
2022-09-15T19:08:10.944Z,99949.44
2022-09-15T19:10:43.844Z,99950.25
2022-09-15T19:13:15.620Z,99951.94
2022-09-15T19:15:44.016Z,99954.63
2022-09-15T19:18:11.500Z,99960.94
2022-09-15T19:20:40.240Z,99957.19
2022-09-15T19:23:08.972Z,99956.13
2022-09-15T19:25:36.857Z,99958.00
2022-09-15T19:28:04.458Z,99953.44
2022-09-15T19:30:31.877Z,99949.88
2022-09-15T19:32:59.532Z,99955.09
2022-09-15T19:35:29.192Z,99955.31
2022-09-15T19:37:56.547Z,99955.69
2022-09-15T19:40:24.096Z,99956.06
2022-09-15T19:42:51.583Z,99957.31
2022-09-15T19:45:18.958Z,99953.75
2022-09-15T19:47:46.717Z,99954.75
2022-09-15T19:50:14.069Z,99948.72
2022-09-15T19:52:41.531Z,99952.06
2022-09-15T19:55:09.904Z,99953.75
2022-09-15T19:57:41.257Z,99947.31
2022-09-15T20:00:11.605Z,99956.06
2022-09-15T20:02:39.527Z,99953.34
2022-09-15T20:05:07.858Z,99950.47
2022-09-15T20:07:35.221Z,99945.88
2022-09-15T20:10:02.687Z,99941.09
2022-09-15T20:12:31.246Z,99940.25
2022-09-15T20:14:58.660Z,99934.84
2022-09-15T20:17:26.004Z,99940.09
2022-09-15T20:19:53.326Z,99939.03
2022-09-15T20:22:20.596Z,99930.91
2022-09-15T20:24:47.894Z,99928.22
2022-09-15T20:27:15.282Z,99935.28
2022-09-15T20:29:42.643Z,99939.03
2022-09-15T20:32:10.103Z,99933.63
2022-09-15T20:34:37.556Z,99936.53
2022-09-15T20:37:04.975Z,99935.69
2022-09-15T20:39:32.526Z,99933.16
2022-09-15T20:42:02.773Z,99928.59
2022-09-15T20:44:30.105Z,99935.88
2022-09-15T20:46:57.324Z,99935.88
2022-09-15T20:49:24.630Z,99941.31
2022-09-15T20:51:51.890Z,99939.63
2022-09-15T20:54:19.284Z,99931.28
2022-09-15T20:56:46.616Z,99932.13
2022-09-15T20:59:14.415Z,99931.13
2022-09-15T21:01:41.940Z,99949.88
2022-09-15T21:04:10.989Z,99953.44
2022-09-15T21:06:38.710Z,99954.47
2022-09-15T21:09:06.577Z,99957.34
2022-09-15T21:11:34.530Z,99962.34
2022-09-15T21:14:03.194Z,99959.19
2022-09-15T21:16:30.514Z,99958.97
2022-09-15T21:18:58.721Z,99957.69
2022-09-15T21:21:29.794Z,99954.75
2022-09-15T21:24:03.436Z,99954.59
2022-09-15T21:26:35.557Z,99946.25
2022-09-15T21:29:02.968Z,99956.06
2022-09-15T21:31:32.840Z,99941.69
2022-09-15T21:34:00.494Z,99950.63
2022-09-15T21:36:30.119Z,99949.63
2022-09-15T21:38:59.305Z,99953.19
2022-09-15T21:41:31.974Z,99951.69
2022-09-15T21:44:00.663Z,99955.44
2022-09-15T21:46:30.462Z,99946.00
2022-09-15T21:48:59.689Z,99954.06
2022-09-15T21:51:29.184Z,99952.00
2022-09-15T21:53:58.424Z,99953.88
2022-09-15T21:56:27.413Z,99953.88
2022-09-15T21:58:54.952Z,99955.53
2022-09-15T22:01:25.796Z,99953.47
2022-09-15T22:03:58.727Z,99956.84
2022-09-15T22:06:33.362Z,99954.97
2022-09-15T22:09:07.334Z,99952.06
2022-09-15T22:11:35.561Z,99950.22
2022-09-15T22:14:08.143Z,99942.91
2022-09-15T22:16:37.830Z,99942.91
2022-09-15T22:19:07.077Z,99953.56
2022-09-15T22:21:37.043Z,99956.47
2022-09-15T22:24:06.970Z,99958.88
2022-09-15T22:26:36.953Z,99962.38
2022-09-15T22:29:05.486Z,99962.97
2022-09-15T22:31:33.286Z,99963.34
2022-09-15T22:34:00.710Z,99962.84
2022-09-15T22:36:30.413Z,99955.09
2022-09-15T22:39:05.075Z,99959.03
2022-09-15T22:41:35.442Z,99959.19
2022-09-15T22:44:04.398Z,99962.13
2022-09-15T22:46:32.411Z,99970.25
2022-09-15T22:49:00.007Z,99965.03
2022-09-15T22:51:27.690Z,99949.78
2022-09-15T22:53:56.743Z,99960.25
2022-09-15T22:56:26.237Z,99951.75
2022-09-15T22:58:55.127Z,99954.09
2022-09-15T23:01:26.016Z,99949.13
2022-09-15T23:03:55.849Z,99954.16
2022-09-15T23:06:24.140Z,99953.78
2022-09-15T23:08:53.671Z,99949.03
2022-09-15T23:11:21.374Z,99949.66
2022-09-15T23:13:49.050Z,99955.91
2022-09-15T23:16:17.024Z,99948.47
2022-09-15T23:18:44.719Z,99950.97
2022-09-15T23:21:14.470Z,99960.75
2022-09-15T23:23:44.322Z,99954.34
2022-09-15T23:26:12.578Z,99956.84
2022-09-15T23:28:40.285Z,99955.81
2022-09-15T23:31:10.197Z,99956.47
2022-09-15T23:33:37.830Z,99951.03
2022-09-15T23:36:07.601Z,99958.97
2022-09-15T23:38:36.417Z,99959.81
2022-09-15T23:41:03.815Z,99947.09
2022-09-15T23:43:33.131Z,99938.97
2022-09-15T23:46:01.527Z,99944.22
2022-09-15T23:48:31.554Z,99946.94
2022-09-15T23:50:59.228Z,99944.22
2022-09-15T23:53:26.943Z,99942.13
2022-09-15T23:55:54.517Z,99941.31
2022-09-15T23:58:21.816Z,99943.19
